sensor_id;sensor_type;location;lat;lon;timestamp;temperature;humidity
25410;DHT22;13339;50.840;4.346;2023-02-15T00:01:35;10.30;99.90
25410;DHT22;13339;50.840;4.346;2023-02-15T00:04:00;10.40;99.90
25410;DHT22;13339;50.840;4.346;2023-02-15T00:06:26;10.40;99.90
25410;DHT22;13339;50.840;4.346;2023-02-15T00:08:53;10.40;99.90
25410;DHT22;13339;50.840;4.346;2023-02-15T00:11:19;10.50;99.90
25410;DHT22;13339;50.840;4.346;2023-02-15T00:14:05;10.30;99.90
25410;DHT22;13339;50.840;4.346;2023-02-15T00:16:31;10.40;99.90
25410;DHT22;13339;50.840;4.346;2023-02-15T00:18:56;10.40;99.90
25410;DHT22;13339;50.840;4.346;2023-02-15T00:21:22;10.40;99.90
25410;DHT22;13339;50.840;4.346;2023-02-15T00:23:47;10.30;99.90
25410;DHT22;13339;50.840;4.346;2023-02-15T00:26:13;10.30;99.90
25410;DHT22;13339;50.840;4.346;2023-02-15T00:28:39;10.30;99.90
25410;DHT22;13339;50.840;4.346;2023-02-15T00:31:09;10.20;99.90
25410;DHT22;13339;50.840;4.346;2023-02-15T00:33:36;10.10;99.90
25410;DHT22;13339;50.840;4.346;2023-02-15T00:36:04;10.10;99.90
25410;DHT22;13339;50.840;4.346;2023-02-15T00:38:31;10.10;99.90
25410;DHT22;13339;50.840;4.346;2023-02-15T00:40:59;9.90;99.90
25410;DHT22;13339;50.840;4.346;2023-02-15T00:43:29;9.90;99.90
25410;DHT22;13339;50.840;4.346;2023-02-15T00:45:55;9.90;99.90
25410;DHT22;13339;50.840;4.346;2023-02-15T00:48:21;9.80;99.90
25410;DHT22;13339;50.840;4.346;2023-02-15T00:50:50;9.70;99.90
25410;DHT22;13339;50.840;4.346;2023-02-15T00:53:16;9.80;99.90
25410;DHT22;13339;50.840;4.346;2023-02-15T00:55:43;9.70;99.90
25410;DHT22;13339;50.840;4.346;2023-02-15T00:58:09;9.40;99.90
25410;DHT22;13339;50.840;4.346;2023-02-15T01:00:36;9.50;99.90
25410;DHT22;13339;50.840;4.346;2023-02-15T01:03:01;9.50;99.90
25410;DHT22;13339;50.840;4.346;2023-02-15T01:05:28;9.30;99.90
25410;DHT22;13339;50.840;4.346;2023-02-15T01:07:55;9.30;99.90
25410;DHT22;13339;50.840;4.346;2023-02-15T01:10:21;9.30;99.90
25410;DHT22;13339;50.840;4.346;2023-02-15T01:12:46;9.40;99.90
25410;DHT22;13339;50.840;4.346;2023-02-15T01:15:12;9.40;99.90
25410;DHT22;13339;50.840;4.346;2023-02-15T01:17:38;9.40;99.90
25410;DHT22;13339;50.840;4.346;2023-02-15T01:20:04;9.50;99.90
25410;DHT22;13339;50.840;4.346;2023-02-15T01:22:30;9.40;99.90
25410;DHT22;13339;50.840;4.346;2023-02-15T01:24:56;9.40;99.90
25410;DHT22;13339;50.840;4.346;2023-02-15T01:27:21;9.40;99.90
25410;DHT22;13339;50.840;4.346;2023-02-15T01:29:47;9.50;99.90
25410;DHT22;13339;50.840;4.346;2023-02-15T01:32:13;9.50;99.90
25410;DHT22;13339;50.840;4.346;2023-02-15T01:34:38;9.50;99.90
25410;DHT22;13339;50.840;4.346;2023-02-15T01:37:04;9.40;99.90
25410;DHT22;13339;50.840;4.346;2023-02-15T01:39:29;9.30;99.90
25410;DHT22;13339;50.840;4.346;2023-02-15T01:41:55;9.40;99.90
25410;DHT22;13339;50.840;4.346;2023-02-15T01:47:10;9.40;99.90
25410;DHT22;13339;50.840;4.346;2023-02-15T01:49:37;9.30;99.90
25410;DHT22;13339;50.840;4.346;2023-02-15T01:52:07;9.10;99.90
25410;DHT22;13339;50.840;4.346;2023-02-15T01:54:34;9.20;99.90
25410;DHT22;13339;50.840;4.346;2023-02-15T01:57:12;9.20;99.90
25410;DHT22;13339;50.840;4.346;2023-02-15T01:59:39;9.10;99.90
25410;DHT22;13339;50.840;4.346;2023-02-15T02:02:09;9.00;99.90
25410;DHT22;13339;50.840;4.346;2023-02-15T02:04:42;8.90;99.90
25410;DHT22;13339;50.840;4.346;2023-02-15T02:07:09;8.90;99.90
25410;DHT22;13339;50.840;4.346;2023-02-15T02:09:37;9.00;99.90
25410;DHT22;13339;50.840;4.346;2023-02-15T02:12:03;9.00;99.90
25410;DHT22;13339;50.840;4.346;2023-02-15T02:14:29;9.10;99.90
25410;DHT22;13339;50.840;4.346;2023-02-15T02:28:21;9.10;99.90
25410;DHT22;13339;50.840;4.346;2023-02-15T02:31:08;9.10;99.90
25410;DHT22;13339;50.840;4.346;2023-02-15T02:33:49;9.10;99.90
25410;DHT22;13339;50.840;4.346;2023-02-15T02:36:45;9.10;99.90
25410;DHT22;13339;50.840;4.346;2023-02-15T02:39:37;9.10;99.90
25410;DHT22;13339;50.840;4.346;2023-02-15T02:47:51;9.00;99.90
25410;DHT22;13339;50.840;4.346;2023-02-15T02:50:23;8.90;99.90
25410;DHT22;13339;50.840;4.346;2023-02-15T02:52:52;8.90;99.90
25410;DHT22;13339;50.840;4.346;2023-02-15T02:55:30;8.80;99.90
25410;DHT22;13339;50.840;4.346;2023-02-15T02:58:33;8.70;99.90
25410;DHT22;13339;50.840;4.346;2023-02-15T03:01:10;8.70;99.90
25410;DHT22;13339;50.840;4.346;2023-02-15T03:06:15;8.60;99.90
25410;DHT22;13339;50.840;4.346;2023-02-15T03:08:48;8.80;99.90
25410;DHT22;13339;50.840;4.346;2023-02-15T03:11:14;8.60;99.90
25410;DHT22;13339;50.840;4.346;2023-02-15T03:13:40;8.40;99.90
25410;DHT22;13339;50.840;4.346;2023-02-15T03:16:08;8.60;99.90
25410;DHT22;13339;50.840;4.346;2023-02-15T03:19:02;8.70;99.90
25410;DHT22;13339;50.840;4.346;2023-02-15T03:21:44;8.60;99.90
25410;DHT22;13339;50.840;4.346;2023-02-15T03:24:18;8.60;99.90
25410;DHT22;13339;50.840;4.346;2023-02-15T03:26:47;8.50;99.90
25410;DHT22;13339;50.840;4.346;2023-02-15T03:29:15;8.70;99.90
25410;DHT22;13339;50.840;4.346;2023-02-15T03:31:44;8.80;99.90
25410;DHT22;13339;50.840;4.346;2023-02-15T03:34:12;8.80;99.90
25410;DHT22;13339;50.840;4.346;2023-02-15T03:36:52;8.90;99.90
25410;DHT22;13339;50.840;4.346;2023-02-15T03:39:27;8.80;99.90
25410;DHT22;13339;50.840;4.346;2023-02-15T03:42:07;8.60;99.90
25410;DHT22;13339;50.840;4.346;2023-02-15T03:44:59;8.70;99.90
25410;DHT22;13339;50.840;4.346;2023-02-15T03:47:33;8.70;99.90
25410;DHT22;13339;50.840;4.346;2023-02-15T03:50:08;8.80;99.90
25410;DHT22;13339;50.840;4.346;2023-02-15T03:52:55;8.80;99.90
25410;DHT22;13339;50.840;4.346;2023-02-15T03:55:22;8.60;99.90
25410;DHT22;13339;50.840;4.346;2023-02-15T03:57:48;8.50;99.90
25410;DHT22;13339;50.840;4.346;2023-02-15T04:00:35;8.30;99.90
25410;DHT22;13339;50.840;4.346;2023-02-15T04:03:36;8.40;99.90
25410;DHT22;13339;50.840;4.346;2023-02-15T04:06:04;8.50;99.90
25410;DHT22;13339;50.840;4.346;2023-02-15T04:08:30;8.40;99.90
25410;DHT22;13339;50.840;4.346;2023-02-15T04:11:31;8.30;99.90
25410;DHT22;13339;50.840;4.346;2023-02-15T04:13:56;8.30;99.90
25410;DHT22;13339;50.840;4.346;2023-02-15T04:16:24;8.30;99.90
25410;DHT22;13339;50.840;4.346;2023-02-15T04:18:49;8.30;99.90
25410;DHT22;13339;50.840;4.346;2023-02-15T04:21:33;8.20;99.90
25410;DHT22;13339;50.840;4.346;2023-02-15T04:24:17;8.10;99.90
25410;DHT22;13339;50.840;4.346;2023-02-15T04:27:02;8.40;99.90
25410;DHT22;13339;50.840;4.346;2023-02-15T04:29:28;8.50;99.90
25410;DHT22;13339;50.840;4.346;2023-02-15T04:31:56;8.50;99.90
25410;DHT22;13339;50.840;4.346;2023-02-15T04:34:21;8.60;99.90
25410;DHT22;13339;50.840;4.346;2023-02-15T04:36:47;8.50;99.90
25410;DHT22;13339;50.840;4.346;2023-02-15T04:39:14;8.50;99.90
25410;DHT22;13339;50.840;4.346;2023-02-15T04:41:40;8.40;99.90
25410;DHT22;13339;50.840;4.346;2023-02-15T04:44:06;8.20;99.90
25410;DHT22;13339;50.840;4.346;2023-02-15T04:46:31;8.30;99.90
25410;DHT22;13339;50.840;4.346;2023-02-15T04:48:57;8.30;99.90
25410;DHT22;13339;50.840;4.346;2023-02-15T04:51:23;8.40;99.90
25410;DHT22;13339;50.840;4.346;2023-02-15T04:53:48;8.50;99.90
25410;DHT22;13339;50.840;4.346;2023-02-15T04:56:14;8.50;99.90
25410;DHT22;13339;50.840;4.346;2023-02-15T04:58:40;8.60;99.90
25410;DHT22;13339;50.840;4.346;2023-02-15T05:01:07;8.60;99.90
25410;DHT22;13339;50.840;4.346;2023-02-15T05:03:33;8.50;99.90
25410;DHT22;13339;50.840;4.346;2023-02-15T05:05:58;8.60;99.90
25410;DHT22;13339;50.840;4.346;2023-02-15T05:08:24;8.60;99.90
25410;DHT22;13339;50.840;4.346;2023-02-15T05:10:49;8.50;99.90
25410;DHT22;13339;50.840;4.346;2023-02-15T05:13:15;8.50;99.90
25410;DHT22;13339;50.840;4.346;2023-02-15T05:15:41;8.50;99.90
25410;DHT22;13339;50.840;4.346;2023-02-15T05:18:06;8.60;99.90
25410;DHT22;13339;50.840;4.346;2023-02-15T05:20:33;8.50;99.90
25410;DHT22;13339;50.840;4.346;2023-02-15T05:22:58;8.30;99.90
25410;DHT22;13339;50.840;4.346;2023-02-15T05:25:24;8.40;99.90
25410;DHT22;13339;50.840;4.346;2023-02-15T05:28:11;8.30;99.90
25410;DHT22;13339;50.840;4.346;2023-02-15T05:30:51;8.20;99.90
25410;DHT22;13339;50.840;4.346;2023-02-15T05:33:18;8.40;99.90
25410;DHT22;13339;50.840;4.346;2023-02-15T05:35:45;8.40;99.90
25410;DHT22;13339;50.840;4.346;2023-02-15T05:38:10;8.40;99.90
25410;DHT22;13339;50.840;4.346;2023-02-15T05:40:36;8.40;99.90
25410;DHT22;13339;50.840;4.346;2023-02-15T05:43:01;8.40;99.90
25410;DHT22;13339;50.840;4.346;2023-02-15T05:45:27;8.40;99.90
25410;DHT22;13339;50.840;4.346;2023-02-15T05:47:52;8.40;99.90
25410;DHT22;13339;50.840;4.346;2023-02-15T05:50:18;8.40;99.90
25410;DHT22;13339;50.840;4.346;2023-02-15T05:52:44;8.40;99.90
25410;DHT22;13339;50.840;4.346;2023-02-15T05:55:09;8.30;99.90
25410;DHT22;13339;50.840;4.346;2023-02-15T05:57:35;8.30;99.90
25410;DHT22;13339;50.840;4.346;2023-02-15T06:00:03;8.30;99.90
25410;DHT22;13339;50.840;4.346;2023-02-15T06:02:33;8.30;99.90
25410;DHT22;13339;50.840;4.346;2023-02-15T06:04:59;8.40;99.90
25410;DHT22;13339;50.840;4.346;2023-02-15T06:07:24;8.40;99.90
25410;DHT22;13339;50.840;4.346;2023-02-15T06:09:50;8.40;99.90
25410;DHT22;13339;50.840;4.346;2023-02-15T06:12:15;8.50;99.90
25410;DHT22;13339;50.840;4.346;2023-02-15T06:14:41;8.40;99.90
25410;DHT22;13339;50.840;4.346;2023-02-15T06:17:06;8.40;99.90
25410;DHT22;13339;50.840;4.346;2023-02-15T06:19:32;8.40;99.90
25410;DHT22;13339;50.840;4.346;2023-02-15T06:21:58;8.40;99.90
25410;DHT22;13339;50.840;4.346;2023-02-15T06:24:23;8.40;99.90
25410;DHT22;13339;50.840;4.346;2023-02-15T06:26:49;8.40;99.90
25410;DHT22;13339;50.840;4.346;2023-02-15T06:29:14;8.40;99.90
25410;DHT22;13339;50.840;4.346;2023-02-15T06:31:40;8.40;99.90
25410;DHT22;13339;50.840;4.346;2023-02-15T06:34:05;8.40;99.90
25410;DHT22;13339;50.840;4.346;2023-02-15T06:36:31;8.40;99.90
25410;DHT22;13339;50.840;4.346;2023-02-15T06:38:57;8.30;99.90
25410;DHT22;13339;50.840;4.346;2023-02-15T06:41:23;8.20;99.90
25410;DHT22;13339;50.840;4.346;2023-02-15T06:43:48;8.20;99.90
25410;DHT22;13339;50.840;4.346;2023-02-15T06:46:14;8.30;99.90
25410;DHT22;13339;50.840;4.346;2023-02-15T06:48:40;8.10;99.90
25410;DHT22;13339;50.840;4.346;2023-02-15T06:51:05;8.10;99.90
25410;DHT22;13339;50.840;4.346;2023-02-15T06:53:31;8.10;99.90
25410;DHT22;13339;50.840;4.346;2023-02-15T06:56:04;8.00;99.90
25410;DHT22;13339;50.840;4.346;2023-02-15T06:58:32;7.90;99.90
25410;DHT22;13339;50.840;4.346;2023-02-15T07:00:58;7.90;99.90
25410;DHT22;13339;50.840;4.346;2023-02-15T07:03:24;7.90;99.90
25410;DHT22;13339;50.840;4.346;2023-02-15T07:05:54;8.00;99.90
25410;DHT22;13339;50.840;4.346;2023-02-15T07:08:20;7.90;99.90
25410;DHT22;13339;50.840;4.346;2023-02-15T07:10:46;8.10;99.90
25410;DHT22;13339;50.840;4.346;2023-02-15T07:13:11;8.10;99.90
25410;DHT22;13339;50.840;4.346;2023-02-15T07:15:37;8.20;99.90
25410;DHT22;13339;50.840;4.346;2023-02-15T07:18:03;8.20;99.90
25410;DHT22;13339;50.840;4.346;2023-02-15T07:20:30;8.30;99.90
25410;DHT22;13339;50.840;4.346;2023-02-15T07:22:56;8.10;99.90
25410;DHT22;13339;50.840;4.346;2023-02-15T07:25:21;8.20;99.90
25410;DHT22;13339;50.840;4.346;2023-02-15T07:27:47;8.20;99.90
25410;DHT22;13339;50.840;4.346;2023-02-15T07:30:15;8.40;99.90
25410;DHT22;13339;50.840;4.346;2023-02-15T07:32:41;8.60;99.90
25410;DHT22;13339;50.840;4.346;2023-02-15T07:35:26;8.60;99.90
25410;DHT22;13339;50.840;4.346;2023-02-15T07:37:52;8.60;99.90
25410;DHT22;13339;50.840;4.346;2023-02-15T07:40:18;8.70;99.90
25410;DHT22;13339;50.840;4.346;2023-02-15T07:42:44;8.60;99.90
25410;DHT22;13339;50.840;4.346;2023-02-15T07:45:09;8.60;99.90
25410;DHT22;13339;50.840;4.346;2023-02-15T07:47:35;8.70;99.90
25410;DHT22;13339;50.840;4.346;2023-02-15T07:50:01;8.80;99.90
25410;DHT22;13339;50.840;4.346;2023-02-15T07:52:27;8.90;99.90
25410;DHT22;13339;50.840;4.346;2023-02-15T07:54:52;8.70;99.90
25410;DHT22;13339;50.840;4.346;2023-02-15T07:57:18;8.80;99.90
25410;DHT22;13339;50.840;4.346;2023-02-15T07:59:43;8.70;99.90
25410;DHT22;13339;50.840;4.346;2023-02-15T08:02:12;8.70;99.90
25410;DHT22;13339;50.840;4.346;2023-02-15T08:04:37;8.70;99.90
25410;DHT22;13339;50.840;4.346;2023-02-15T08:07:04;8.80;99.90
25410;DHT22;13339;50.840;4.346;2023-02-15T08:09:30;8.70;99.90
25410;DHT22;13339;50.840;4.346;2023-02-15T08:11:55;8.70;99.90
25410;DHT22;13339;50.840;4.346;2023-02-15T08:14:21;8.80;99.90
25410;DHT22;13339;50.840;4.346;2023-02-15T08:16:49;8.70;99.90
25410;DHT22;13339;50.840;4.346;2023-02-15T08:19:23;8.80;99.90
25410;DHT22;13339;50.840;4.346;2023-02-15T08:24:24;9.10;99.90
25410;DHT22;13339;50.840;4.346;2023-02-15T08:26:51;9.20;99.90
25410;DHT22;13339;50.840;4.346;2023-02-15T08:29:20;9.20;99.90
25410;DHT22;13339;50.840;4.346;2023-02-15T08:31:48;9.30;99.90
25410;DHT22;13339;50.840;4.346;2023-02-15T08:34:16;9.40;99.90
25410;DHT22;13339;50.840;4.346;2023-02-15T08:36:43;9.50;99.90
25410;DHT22;13339;50.840;4.346;2023-02-15T08:39:13;9.60;99.90
25410;DHT22;13339;50.840;4.346;2023-02-15T08:41:42;9.50;99.90
25410;DHT22;13339;50.840;4.346;2023-02-15T08:44:09;9.50;99.90
25410;DHT22;13339;50.840;4.346;2023-02-15T08:46:38;9.50;99.90
25410;DHT22;13339;50.840;4.346;2023-02-15T08:49:05;9.50;99.90
25410;DHT22;13339;50.840;4.346;2023-02-15T08:51:33;9.60;99.90
25410;DHT22;13339;50.840;4.346;2023-02-15T08:54:01;9.70;99.90
25410;DHT22;13339;50.840;4.346;2023-02-15T08:56:29;9.90;99.90
25410;DHT22;13339;50.840;4.346;2023-02-15T08:58:58;9.90;99.90
25410;DHT22;13339;50.840;4.346;2023-02-15T09:01:28;9.90;99.90
25410;DHT22;13339;50.840;4.346;2023-02-15T09:04:01;10.00;99.90
25410;DHT22;13339;50.840;4.346;2023-02-15T09:06:28;10.10;99.90
25410;DHT22;13339;50.840;4.346;2023-02-15T09:08:54;10.10;99.90
25410;DHT22;13339;50.840;4.346;2023-02-15T09:11:22;10.20;99.90
25410;DHT22;13339;50.840;4.346;2023-02-15T09:16:23;10.10;99.90
25410;DHT22;13339;50.840;4.346;2023-02-15T09:18:49;10.00;99.90
25410;DHT22;13339;50.840;4.346;2023-02-15T09:21:17;9.90;99.90
25410;DHT22;13339;50.840;4.346;2023-02-15T09:23:44;9.80;99.90
25410;DHT22;13339;50.840;4.346;2023-02-15T09:26:16;9.80;99.90
25410;DHT22;13339;50.840;4.346;2023-02-15T09:28:43;10.00;99.90
25410;DHT22;13339;50.840;4.346;2023-02-15T09:31:11;10.00;99.90
25410;DHT22;13339;50.840;4.346;2023-02-15T09:33:38;10.20;99.90
25410;DHT22;13339;50.840;4.346;2023-02-15T09:36:04;10.30;99.90
25410;DHT22;13339;50.840;4.346;2023-02-15T09:38:30;10.40;99.90
25410;DHT22;13339;50.840;4.346;2023-02-15T09:41:19;10.40;99.90
25410;DHT22;13339;50.840;4.346;2023-02-15T10:00:27;11.10;99.90
25410;DHT22;13339;50.840;4.346;2023-02-15T10:03:12;11.30;99.90
25410;DHT22;13339;50.840;4.346;2023-02-15T10:09:03;11.30;99.90
25410;DHT22;13339;50.840;4.346;2023-02-15T10:14:42;11.50;99.90
25410;DHT22;13339;50.840;4.346;2023-02-15T10:26:17;11.70;99.90
25410;DHT22;13339;50.840;4.346;2023-02-15T10:42:17;12.40;99.90
25410;DHT22;13339;50.840;4.346;2023-02-15T11:06:35;13.00;99.90
25410;DHT22;13339;50.840;4.346;2023-02-15T11:09:13;13.10;99.90
25410;DHT22;13339;50.840;4.346;2023-02-15T11:11:42;13.20;99.90
25410;DHT22;13339;50.840;4.346;2023-02-15T11:14:17;13.20;99.90
25410;DHT22;13339;50.840;4.346;2023-02-15T11:16:46;13.30;99.90
25410;DHT22;13339;50.840;4.346;2023-02-15T11:19:18;13.50;99.90
25410;DHT22;13339;50.840;4.346;2023-02-15T11:21:49;13.70;99.90
25410;DHT22;13339;50.840;4.346;2023-02-15T11:24:19;13.80;99.90
25410;DHT22;13339;50.840;4.346;2023-02-15T11:26:50;13.80;99.90
25410;DHT22;13339;50.840;4.346;2023-02-15T11:31:53;14.00;99.90
25410;DHT22;13339;50.840;4.346;2023-02-15T11:34:33;14.00;99.90
25410;DHT22;13339;50.840;4.346;2023-02-15T11:37:06;14.20;99.90
25410;DHT22;13339;50.840;4.346;2023-02-15T11:39:35;14.30;99.90
25410;DHT22;13339;50.840;4.346;2023-02-15T11:42:04;14.50;99.90
25410;DHT22;13339;50.840;4.346;2023-02-15T11:44:38;14.60;99.90
25410;DHT22;13339;50.840;4.346;2023-02-15T11:47:12;14.70;99.90
25410;DHT22;13339;50.840;4.346;2023-02-15T11:49:39;14.70;99.90
25410;DHT22;13339;50.840;4.346;2023-02-15T11:52:07;14.70;99.90
25410;DHT22;13339;50.840;4.346;2023-02-15T11:54:37;14.80;99.90
25410;DHT22;13339;50.840;4.346;2023-02-15T11:59:50;14.60;99.90
25410;DHT22;13339;50.840;4.346;2023-02-15T12:02:22;14.60;99.90
25410;DHT22;13339;50.840;4.346;2023-02-15T12:04:52;14.70;99.90
25410;DHT22;13339;50.840;4.346;2023-02-15T12:07:32;14.80;99.90
25410;DHT22;13339;50.840;4.346;2023-02-15T12:10:04;14.70;99.90
25410;DHT22;13339;50.840;4.346;2023-02-15T12:12:35;14.70;99.90
25410;DHT22;13339;50.840;4.346;2023-02-15T12:15:04;14.70;99.90
25410;DHT22;13339;50.840;4.346;2023-02-15T12:17:33;14.80;99.90
25410;DHT22;13339;50.840;4.346;2023-02-15T12:22:36;14.80;99.90
25410;DHT22;13339;50.840;4.346;2023-02-15T12:25:21;14.70;99.90
25410;DHT22;13339;50.840;4.346;2023-02-15T12:27:48;14.60;99.90
25410;DHT22;13339;50.840;4.346;2023-02-15T12:30:35;14.60;99.90
25410;DHT22;13339;50.840;4.346;2023-02-15T12:33:14;14.60;99.90
25410;DHT22;13339;50.840;4.346;2023-02-15T12:35:42;14.70;99.90
25410;DHT22;13339;50.840;4.346;2023-02-15T12:40:38;15.00;99.90
25410;DHT22;13339;50.840;4.346;2023-02-15T12:43:04;15.10;99.90
25410;DHT22;13339;50.840;4.346;2023-02-15T12:45:35;15.20;99.90
25410;DHT22;13339;50.840;4.346;2023-02-15T12:50:42;15.20;99.90
25410;DHT22;13339;50.840;4.346;2023-02-15T12:53:13;15.30;99.90
25410;DHT22;13339;50.840;4.346;2023-02-15T12:55:39;15.30;99.90
25410;DHT22;13339;50.840;4.346;2023-02-15T12:58:18;15.30;99.90
25410;DHT22;13339;50.840;4.346;2023-02-15T13:00:44;15.30;99.90
25410;DHT22;13339;50.840;4.346;2023-02-15T13:03:18;15.40;99.90
25410;DHT22;13339;50.840;4.346;2023-02-15T13:05:46;15.30;99.90
25410;DHT22;13339;50.840;4.346;2023-02-15T13:08:19;15.30;99.90
25410;DHT22;13339;50.840;4.346;2023-02-15T13:11:08;15.20;99.90
25410;DHT22;13339;50.840;4.346;2023-02-15T13:16:52;15.20;99.90
25410;DHT22;13339;50.840;4.346;2023-02-15T13:19:33;15.20;99.90
25410;DHT22;13339;50.840;4.346;2023-02-15T13:22:03;15.30;99.90
25410;DHT22;13339;50.840;4.346;2023-02-15T13:24:37;15.40;99.90
25410;DHT22;13339;50.840;4.346;2023-02-15T13:27:04;15.40;99.90
25410;DHT22;13339;50.840;4.346;2023-02-15T13:29:34;15.40;99.90
25410;DHT22;13339;50.840;4.346;2023-02-15T13:32:24;15.50;99.90
25410;DHT22;13339;50.840;4.346;2023-02-15T13:34:52;15.50;99.90
25410;DHT22;13339;50.840;4.346;2023-02-15T13:37:32;15.60;99.90
25410;DHT22;13339;50.840;4.346;2023-02-15T13:42:40;15.60;99.90
25410;DHT22;13339;50.840;4.346;2023-02-15T13:53:44;15.50;99.90
25410;DHT22;13339;50.840;4.346;2023-02-15T13:56:17;15.40;99.90
25410;DHT22;13339;50.840;4.346;2023-02-15T13:58:59;15.40;99.90
25410;DHT22;13339;50.840;4.346;2023-02-15T14:13:10;15.40;99.90
25410;DHT22;13339;50.840;4.346;2023-02-15T14:15:50;15.50;99.90
25410;DHT22;13339;50.840;4.346;2023-02-15T14:18:42;15.40;99.90
25410;DHT22;13339;50.840;4.346;2023-02-15T14:21:30;15.30;99.90
25410;DHT22;13339;50.840;4.346;2023-02-15T14:29:14;15.30;99.90
25410;DHT22;13339;50.840;4.346;2023-02-15T14:31:45;15.40;99.90
25410;DHT22;13339;50.840;4.346;2023-02-15T14:34:45;15.40;99.90
25410;DHT22;13339;50.840;4.346;2023-02-15T14:37:13;15.40;99.90
25410;DHT22;13339;50.840;4.346;2023-02-15T14:39:55;15.50;99.90
25410;DHT22;13339;50.840;4.346;2023-02-15T14:42:58;15.40;99.90
25410;DHT22;13339;50.840;4.346;2023-02-15T14:45:30;15.30;99.90
25410;DHT22;13339;50.840;4.346;2023-02-15T14:58:56;15.00;99.90
25410;DHT22;13339;50.840;4.346;2023-02-15T15:01:32;15.10;99.90
25410;DHT22;13339;50.840;4.346;2023-02-15T15:04:11;15.10;99.90
25410;DHT22;13339;50.840;4.346;2023-02-15T15:06:41;15.10;99.90
25410;DHT22;13339;50.840;4.346;2023-02-15T15:11:50;14.90;99.90
25410;DHT22;13339;50.840;4.346;2023-02-15T15:14:39;14.90;99.90
25410;DHT22;13339;50.840;4.346;2023-02-15T15:17:08;14.80;99.90
25410;DHT22;13339;50.840;4.346;2023-02-15T15:22:23;14.90;99.90
25410;DHT22;13339;50.840;4.346;2023-02-15T15:25:00;15.00;99.90
25410;DHT22;13339;50.840;4.346;2023-02-15T15:27:48;15.10;99.90
25410;DHT22;13339;50.840;4.346;2023-02-15T15:32:56;15.00;99.90
25410;DHT22;13339;50.840;4.346;2023-02-15T15:35:44;15.00;99.90
25410;DHT22;13339;50.840;4.346;2023-02-15T15:49:28;14.90;99.90
25410;DHT22;13339;50.840;4.346;2023-02-15T15:51:54;15.00;99.90
25410;DHT22;13339;50.840;4.346;2023-02-15T15:54:24;14.90;99.90
25410;DHT22;13339;50.840;4.346;2023-02-15T15:57:03;15.10;99.90
25410;DHT22;13339;50.840;4.346;2023-02-15T15:59:33;15.10;99.90
25410;DHT22;13339;50.840;4.346;2023-02-15T16:02:13;15.00;99.90
25410;DHT22;13339;50.840;4.346;2023-02-15T16:04:41;15.00;99.90
25410;DHT22;13339;50.840;4.346;2023-02-15T16:09:57;14.80;99.90
25410;DHT22;13339;50.840;4.346;2023-02-15T16:12:24;14.80;99.90
25410;DHT22;13339;50.840;4.346;2023-02-15T16:14:50;14.80;99.90
25410;DHT22;13339;50.840;4.346;2023-02-15T16:17:22;14.70;99.90
25410;DHT22;13339;50.840;4.346;2023-02-15T16:19:49;14.80;99.90
25410;DHT22;13339;50.840;4.346;2023-02-15T16:22:19;14.80;99.90
25410;DHT22;13339;50.840;4.346;2023-02-15T16:33:13;14.70;99.90
25410;DHT22;13339;50.840;4.346;2023-02-15T16:35:56;14.60;99.90
25410;DHT22;13339;50.840;4.346;2023-02-15T16:41:12;14.60;99.90
25410;DHT22;13339;50.840;4.346;2023-02-15T16:43:40;14.50;99.90
25410;DHT22;13339;50.840;4.346;2023-02-15T16:46:13;14.50;99.90
25410;DHT22;13339;50.840;4.346;2023-02-15T16:48:43;14.40;99.90
25410;DHT22;13339;50.840;4.346;2023-02-15T16:51:20;14.40;99.90
25410;DHT22;13339;50.840;4.346;2023-02-15T16:53:47;14.30;99.90
25410;DHT22;13339;50.840;4.346;2023-02-15T16:56:16;14.20;99.90
25410;DHT22;13339;50.840;4.346;2023-02-15T16:58:49;14.20;99.90
25410;DHT22;13339;50.840;4.346;2023-02-15T17:01:20;14.20;99.90
25410;DHT22;13339;50.840;4.346;2023-02-15T17:03:48;14.20;99.90
25410;DHT22;13339;50.840;4.346;2023-02-15T17:06:25;14.20;99.90
25410;DHT22;13339;50.840;4.346;2023-02-15T17:08:52;14.10;99.90
25410;DHT22;13339;50.840;4.346;2023-02-15T17:16:35;14.30;99.90
25410;DHT22;13339;50.840;4.346;2023-02-15T17:19:16;14.30;99.90
25410;DHT22;13339;50.840;4.346;2023-02-15T17:21:49;14.30;99.90
25410;DHT22;13339;50.840;4.346;2023-02-15T17:24:37;14.30;99.90
25410;DHT22;13339;50.840;4.346;2023-02-15T17:27:14;14.20;99.90
25410;DHT22;13339;50.840;4.346;2023-02-15T17:29:46;14.00;99.90
25410;DHT22;13339;50.840;4.346;2023-02-15T17:32:24;14.10;99.90
25410;DHT22;13339;50.840;4.346;2023-02-15T17:40:18;14.10;99.90
25410;DHT22;13339;50.840;4.346;2023-02-15T17:42:44;14.20;99.90
25410;DHT22;13339;50.840;4.346;2023-02-15T17:45:09;14.20;99.90
25410;DHT22;13339;50.840;4.346;2023-02-15T17:47:35;14.20;99.90
25410;DHT22;13339;50.840;4.346;2023-02-15T17:50:02;14.10;99.90
25410;DHT22;13339;50.840;4.346;2023-02-15T17:52:29;14.10;99.90
25410;DHT22;13339;50.840;4.346;2023-02-15T17:54:55;14.10;99.90
25410;DHT22;13339;50.840;4.346;2023-02-15T17:57:40;14.00;99.90
25410;DHT22;13339;50.840;4.346;2023-02-15T18:00:07;14.10;99.90
25410;DHT22;13339;50.840;4.346;2023-02-15T18:02:51;14.00;99.90
25410;DHT22;13339;50.840;4.346;2023-02-15T18:05:36;14.10;99.90
25410;DHT22;13339;50.840;4.346;2023-02-15T18:08:26;14.10;99.90
25410;DHT22;13339;50.840;4.346;2023-02-15T18:11:10;14.10;99.90
25410;DHT22;13339;50.840;4.346;2023-02-15T18:13:55;14.10;99.90
25410;DHT22;13339;50.840;4.346;2023-02-15T18:16:28;13.90;99.90
25410;DHT22;13339;50.840;4.346;2023-02-15T18:18:55;13.90;99.90
25410;DHT22;13339;50.840;4.346;2023-02-15T18:21:22;13.70;99.90
25410;DHT22;13339;50.840;4.346;2023-02-15T18:23:48;13.70;99.90
25410;DHT22;13339;50.840;4.346;2023-02-15T18:26:24;13.70;99.90
25410;DHT22;13339;50.840;4.346;2023-02-15T18:28:50;13.70;99.90
25410;DHT22;13339;50.840;4.346;2023-02-15T18:31:17;13.60;99.90
25410;DHT22;13339;50.840;4.346;2023-02-15T18:33:49;13.60;99.90
25410;DHT22;13339;50.840;4.346;2023-02-15T18:36:35;13.50;99.90
25410;DHT22;13339;50.840;4.346;2023-02-15T18:39:05;13.60;99.90
25410;DHT22;13339;50.840;4.346;2023-02-15T18:41:41;13.70;99.90
25410;DHT22;13339;50.840;4.346;2023-02-15T18:44:13;13.70;99.90
25410;DHT22;13339;50.840;4.346;2023-02-15T18:46:39;13.70;99.90
25410;DHT22;13339;50.840;4.346;2023-02-15T18:49:04;13.70;99.90
25410;DHT22;13339;50.840;4.346;2023-02-15T18:51:30;13.70;99.90
25410;DHT22;13339;50.840;4.346;2023-02-15T18:53:57;13.60;99.90
25410;DHT22;13339;50.840;4.346;2023-02-15T18:56:23;13.40;99.90
25410;DHT22;13339;50.840;4.346;2023-02-15T18:58:49;13.40;99.90
25410;DHT22;13339;50.840;4.346;2023-02-15T19:01:17;13.40;99.90
25410;DHT22;13339;50.840;4.346;2023-02-15T19:03:48;13.50;99.90
25410;DHT22;13339;50.840;4.346;2023-02-15T19:06:16;13.40;99.90
25410;DHT22;13339;50.840;4.346;2023-02-15T19:08:44;13.40;99.90
25410;DHT22;13339;50.840;4.346;2023-02-15T19:11:14;13.30;99.90
25410;DHT22;13339;50.840;4.346;2023-02-15T19:13:40;13.20;99.90